Time,TemperatureF,DewpointF,PressureIn,WindDirection,WindDirectionDegrees,WindSpeedMPH,WindSpeedGustMPH,Humidity,HourlyPrecipIn,Conditions,Clouds,dailyrainin,SoftwareType,DateUTC
2013-07-13 00:02:00,77.0,60.6,29.93,North,0,0.0,0.0,57,0.00,,,0.00,WUHU216HW,2013-07-13 05:02:00,
2013-07-13 00:07:00,76.9,60.4,29.93,North,0,0.0,0.0,57,0.00,,,0.00,WUHU216HW,2013-07-13 05:07:00,
2013-07-13 00:12:00,76.7,60.8,29.93,North,0,0.0,0.0,58,0.00,,,0.00,WUHU216HW,2013-07-13 05:12:00,
2013-07-13 00:17:00,76.3,60.5,29.93,North,0,0.0,0.0,58,0.00,,,0.00,WUHU216HW,2013-07-13 05:17:00,
2013-07-13 00:22:00,76.3,60.5,29.93,North,0,0.0,0.0,58,0.00,,,0.00,WUHU216HW,2013-07-13 05:22:00,
2013-07-13 00:27:00,76.3,60.5,29.93,North,0,0.0,0.0,58,0.00,,,0.00,WUHU216HW,2013-07-13 05:27:00,
2013-07-13 00:32:00,76.1,60.3,29.93,North,0,0.0,0.0,58,0.00,,,0.00,WUHU216HW,2013-07-13 05:32:00,
2013-07-13 00:37:00,76.0,60.1,29.93,North,0,0.0,0.0,58,0.00,,,0.00,WUHU216HW,2013-07-13 05:37:00,
2013-07-13 00:42:00,76.0,60.7,29.92,North,0,0.0,0.0,59,0.00,,,0.00,WUHU216HW,2013-07-13 05:42:00,
2013-07-13 00:47:00,76.0,60.7,29.92,North,0,0.0,0.0,59,0.00,,,0.00,WUHU216HW,2013-07-13 05:47:00,
2013-07-13 00:52:00,76.0,60.7,29.92,North,0,0.0,0.0,59,0.00,,,0.00,WUHU216HW,2013-07-13 05:52:00,
2013-07-13 00:57:00,75.8,60.5,29.92,North,0,0.0,0.0,59,0.00,,,0.00,WUHU216HW,2013-07-13 05:57:00,
2013-07-13 01:02:00,75.8,60.5,29.92,North,0,0.0,0.0,59,0.00,,,0.00,WUHU216HW,2013-07-13 06:02:00,
2013-07-13 01:07:00,75.8,60.5,29.91,North,0,0.0,0.0,59,0.00,,,0.00,WUHU216HW,2013-07-13 06:07:00,
2013-07-13 01:12:00,75.8,60.5,29.90,North,0,0.0,0.0,59,0.00,,,0.00,WUHU216HW,2013-07-13 06:12:00,
2013-07-13 01:17:00,75.8,60.5,29.90,North,0,0.0,0.0,59,0.00,,,0.00,WUHU216HW,2013-07-13 06:17:00,
2013-07-13 01:22:00,75.8,60.5,29.89,North,0,0.0,0.0,59,0.00,,,0.00,WUHU216HW,2013-07-13 06:22:00,
2013-07-13 01:27:00,75.6,60.3,29.90,North,0,0.0,0.0,59,0.00,,,0.00,WUHU216HW,2013-07-13 06:27:00,
2013-07-13 01:32:00,75.6,60.3,29.90,North,0,0.0,0.0,59,0.00,,,0.00,WUHU216HW,2013-07-13 06:32:00,
2013-07-13 01:37:00,75.4,60.1,29.91,North,0,0.0,0.0,59,0.00,,,0.00,WUHU216HW,2013-07-13 06:37:00,
2013-07-13 01:42:00,75.2,59.9,29.91,North,0,0.0,0.0,59,0.00,,,0.00,WUHU216HW,2013-07-13 06:42:00,
2013-07-13 01:47:00,75.2,59.9,29.91,North,0,0.0,0.0,59,0.00,,,0.00,WUHU216HW,2013-07-13 06:47:00,
2013-07-13 01:52:00,75.2,59.9,29.92,North,0,0.0,0.0,59,0.00,,,0.00,WUHU216HW,2013-07-13 06:52:00,
2013-07-13 01:57:00,75.2,59.9,29.93,North,0,0.0,0.0,59,0.00,,,0.00,WUHU216HW,2013-07-13 06:57:00,
2013-07-13 02:02:00,75.4,60.1,29.95,North,0,0.0,0.0,59,0.00,,,0.00,WUHU216HW,2013-07-13 07:02:00,
2013-07-13 02:07:00,75.4,60.1,29.94,North,0,0.0,0.0,59,0.00,,,0.00,WUHU216HW,2013-07-13 07:07:00,
2013-07-13 02:12:00,75.6,60.3,29.95,North,0,0.0,0.0,59,0.00,,,0.00,WUHU216HW,2013-07-13 07:12:00,
2013-07-13 02:17:00,75.4,60.1,29.96,North,0,0.0,0.0,59,0.00,,,0.00,WUHU216HW,2013-07-13 07:17:00,
2013-07-13 02:22:00,75.6,60.3,29.97,North,0,0.0,0.0,59,0.00,,,0.00,WUHU216HW,2013-07-13 07:22:00,
2013-07-13 02:27:00,75.8,60.5,29.96,North,0,0.0,0.0,59,0.00,,,0.00,WUHU216HW,2013-07-13 07:27:00,
2013-07-13 02:32:00,75.8,60.5,29.95,North,0,0.0,0.0,59,0.00,,,0.00,WUHU216HW,2013-07-13 07:32:00,
2013-07-13 02:37:00,75.8,60.5,29.96,North,0,0.0,0.0,59,0.00,,,0.00,WUHU216HW,2013-07-13 07:37:00,
2013-07-13 02:42:00,75.8,60.5,29.94,North,0,0.0,0.0,59,0.00,,,0.00,WUHU216HW,2013-07-13 07:42:00,
2013-07-13 02:47:00,75.6,60.3,29.97,North,0,0.0,0.0,59,0.00,,,0.00,WUHU216HW,2013-07-13 07:47:00,
2013-07-13 02:52:00,75.6,60.3,29.97,North,0,0.0,0.0,59,0.00,,,0.00,WUHU216HW,2013-07-13 07:52:00,
2013-07-13 02:57:00,75.6,60.9,29.95,North,0,0.0,0.0,60,0.00,,,0.00,WUHU216HW,2013-07-13 07:57:00,
2013-07-13 03:02:00,75.4,61.1,29.95,North,0,0.0,0.0,61,0.00,,,0.00,WUHU216HW,2013-07-13 08:02:00,
2013-07-13 03:07:00,75.4,61.5,29.93,North,0,0.0,0.0,62,0.00,,,0.00,WUHU216HW,2013-07-13 08:07:00,
2013-07-13 03:12:00,75.1,62.0,29.93,North,0,0.0,0.0,64,0.00,,,0.00,WUHU216HW,2013-07-13 08:12:00,
2013-07-13 03:17:00,74.7,62.1,29.95,North,0,0.0,0.0,65,0.00,,,0.00,WUHU216HW,2013-07-13 08:17:00,
2013-07-13 03:22:00,74.2,62.1,29.94,North,0,0.0,0.0,66,0.00,,,0.00,WUHU216HW,2013-07-13 08:22:00,
2013-07-13 03:27:00,73.6,62.0,29.92,North,0,0.0,0.0,67,0.01,,,0.02,WUHU216HW,2013-07-13 08:27:00,
2013-07-13 03:32:00,73.3,62.1,29.97,North,0,0.0,0.0,68,0.02,,,0.02,WUHU216HW,2013-07-13 08:32:00,
2013-07-13 03:37:00,72.9,63.0,29.94,North,0,0.0,0.0,71,0.04,,,0.04,WUHU216HW,2013-07-13 08:37:00,
2013-07-13 03:42:00,72.5,62.6,29.91,North,0,0.0,0.0,71,0.08,,,0.09,WUHU216HW,2013-07-13 08:42:00,
2013-07-13 03:47:00,72.4,62.8,29.97,North,0,0.0,0.0,72,0.11,,,0.11,WUHU216HW,2013-07-13 08:47:00,
2013-07-13 03:52:00,71.6,63.6,30.01,North,0,0.0,0.0,76,0.14,,,0.15,WUHU216HW,2013-07-13 08:52:00,
2013-07-13 03:57:00,70.9,62.9,30.00,North,0,0.0,0.0,76,0.20,,,0.21,WUHU216HW,2013-07-13 08:57:00,
2013-07-13 04:02:00,70.4,62.7,29.96,North,0,0.0,0.0,77,0.26,,,0.27,WUHU216HW,2013-07-13 09:02:00,
2013-07-13 04:07:00,70.0,62.8,29.98,North,0,0.0,0.0,78,0.41,,,0.41,WUHU216HW,2013-07-13 09:07:00,
2013-07-13 04:12:00,69.7,62.8,29.97,North,0,0.0,0.0,79,0.56,,,0.56,WUHU216HW,2013-07-13 09:12:00,
2013-07-13 04:17:00,69.1,62.7,29.96,North,0,0.0,0.0,80,0.75,,,0.76,WUHU216HW,2013-07-13 09:17:00,
2013-07-13 04:22:00,68.8,62.7,29.97,North,0,0.0,0.0,81,0.86,,,0.88,WUHU216HW,2013-07-13 09:22:00,
2013-07-13 04:27:00,68.4,63.1,29.96,North,0,0.0,0.0,83,1.00,,,1.02,WUHU216HW,2013-07-13 09:27:00,
2013-07-13 04:32:00,67.9,62.8,29.96,North,0,0.0,0.0,84,1.05,,,1.08,WUHU216HW,2013-07-13 09:32:00,
2013-07-13 04:37:00,67.7,62.6,29.99,North,0,0.0,0.0,84,1.07,,,1.11,WUHU216HW,2013-07-13 09:37:00,
2013-07-13 04:42:00,67.3,62.6,29.99,North,0,0.0,0.0,85,1.14,,,1.23,WUHU216HW,2013-07-13 09:42:00,
2013-07-13 04:47:00,67.3,62.6,29.97,North,0,0.0,0.0,85,1.12,,,1.23,WUHU216HW,2013-07-13 09:47:00,
2013-07-13 04:52:00,67.1,62.8,29.97,North,0,0.0,0.0,86,1.06,,,1.24,WUHU216HW,2013-07-13 09:52:00,
2013-07-13 04:57:00,67.3,63.0,29.96,North,0,0.0,0.0,86,1.02,,,1.26,WUHU216HW,2013-07-13 09:57:00,
2013-07-13 05:02:00,67.1,62.8,29.96,North,0,0.0,0.0,86,1.00,,,1.30,WUHU216HW,2013-07-13 10:02:00,
2013-07-13 05:07:00,67.1,62.5,29.98,North,0,0.0,0.0,85,0.91,,,1.33,WUHU216HW,2013-07-13 10:07:00,
2013-07-13 05:12:00,67.0,63.3,30.01,North,0,0.0,0.0,88,0.62,,,1.33,WUHU216HW,2013-07-13 10:12:00,
2013-07-13 05:17:00,67.0,63.5,30.03,North,0,0.0,0.0,89,0.68,,,1.49,WUHU216HW,2013-07-13 10:17:00,
2013-07-13 05:22:00,66.8,63.1,29.99,North,0,0.0,0.0,88,0.74,,,1.66,WUHU216HW,2013-07-13 10:22:00,
2013-07-13 05:27:00,66.6,62.9,29.97,North,0,0.0,0.0,88,0.72,,,1.74,WUHU216HW,2013-07-13 10:27:00,
2013-07-13 05:32:00,66.6,62.9,29.97,North,0,0.0,0.0,88,0.70,,,1.79,WUHU216HW,2013-07-13 10:32:00,
2013-07-13 05:37:00,66.4,63.0,29.99,North,0,0.0,0.0,89,0.70,,,1.88,WUHU216HW,2013-07-13 10:37:00,
2013-07-13 05:42:00,66.2,62.8,30.00,North,0,0.0,0.0,89,0.70,,,1.93,WUHU216HW,2013-07-13 10:42:00,
2013-07-13 05:47:00,66.1,62.4,30.02,North,0,0.0,0.0,88,0.77,,,2.00,WUHU216HW,2013-07-13 10:47:00,
2013-07-13 05:52:00,65.9,62.2,30.01,North,0,0.0,0.0,88,0.83,,,2.09,WUHU216HW,2013-07-13 10:52:00,
2013-07-13 05:57:00,65.9,62.8,29.99,North,0,0.0,0.0,90,0.91,,,2.17,WUHU216HW,2013-07-13 10:57:00,
2013-07-13 06:02:00,65.7,62.7,29.99,North,0,0.0,0.0,90,0.91,,,2.22,WUHU216HW,2013-07-13 11:02:00,
2013-07-13 06:07:00,65.7,62.0,30.01,North,0,0.0,0.0,88,0.96,,,2.28,WUHU216HW,2013-07-13 11:07:00,
2013-07-13 06:12:00,65.7,62.4,30.02,North,0,0.0,0.0,89,0.98,,,2.35,WUHU216HW,2013-07-13 11:12:00,
2013-07-13 06:17:00,65.7,62.7,30.02,North,0,0.0,0.0,90,0.94,,,2.51,WUHU216HW,2013-07-13 11:17:00,
2013-07-13 06:22:00,65.7,62.4,30.01,North,0,0.0,0.0,89,1.16,,,2.87,WUHU216HW,2013-07-13 11:22:00,
2013-07-13 06:27:00,65.5,61.8,30.02,North,0,0.0,0.0,88,1.36,,,3.11,WUHU216HW,2013-07-13 11:27:00,
2013-07-13 06:32:00,65.5,61.8,30.02,North,0,0.0,0.0,88,1.63,,,3.46,WUHU216HW,2013-07-13 11:32:00,
2013-07-13 06:37:00,65.3,61.8,30.02,North,0,0.0,0.0,88,1.87,,,3.77,WUHU216HW,2013-07-13 11:37:00,
2013-07-13 06:42:00,65.5,62.6,30.01,North,0,0.0,0.0,90,2.19,,,4.13,WUHU216HW,2013-07-13 11:42:00,
2013-07-13 06:47:00,66.2,63.5,30.01,North,0,0.0,0.0,91,2.40,,,4.41,WUHU216HW,2013-07-13 11:47:00,
2013-07-13 06:52:00,66.6,64.2,30.01,North,0,0.0,0.0,92,2.43,,,4.59,WUHU216HW,2013-07-13 11:52:00,
2013-07-13 06:57:00,66.8,64.4,30.01,North,0,0.0,0.0,92,2.42,,,4.61,WUHU216HW,2013-07-13 11:57:00,
2013-07-13 07:02:00,66.8,64.4,30.01,North,0,0.0,0.0,92,2.38,,,4.61,WUHU216HW,2013-07-13 12:02:00,
2013-07-13 07:07:00,66.8,64.4,30.01,North,0,0.0,0.0,92,2.31,,,4.64,WUHU216HW,2013-07-13 12:07:00,
2013-07-13 07:12:00,67.0,64.8,30.01,North,0,0.0,0.0,93,2.15,,,4.67,WUHU216HW,2013-07-13 12:12:00,
2013-07-13 07:17:00,67.1,64.7,30.01,North,0,0.0,0.0,92,1.93,,,4.68,WUHU216HW,2013-07-13 12:17:00,
2013-07-13 07:22:00,67.5,65.3,30.01,North,0,0.0,0.0,93,1.77,,,4.70,WUHU216HW,2013-07-13 12:22:00,
2013-07-13 07:27:00,68.0,66.3,30.00,North,0,0.0,0.0,94,1.63,,,4.77,WUHU216HW,2013-07-13 12:27:00,
2013-07-13 07:32:00,68.2,66.4,30.00,North,0,0.0,0.0,94,1.22,,,4.88,WUHU216HW,2013-07-13 12:32:00,
2013-07-13 07:37:00,68.4,66.2,29.99,North,0,0.0,0.0,93,0.96,,,4.90,WUHU216HW,2013-07-13 12:37:00,
2013-07-13 07:42:00,68.4,66.2,29.99,North,0,0.0,0.0,93,0.69,,,4.90,WUHU216HW,2013-07-13 12:42:00,
2013-07-13 07:47:00,68.2,66.1,30.00,North,0,0.0,0.0,93,0.48,,,4.91,WUHU216HW,2013-07-13 12:47:00,
2013-07-13 07:52:00,68.2,66.1,30.00,North,0,0.0,0.0,93,0.30,,,4.91,WUHU216HW,2013-07-13 12:52:00,
2013-07-13 07:57:00,68.0,65.9,29.99,North,0,0.0,0.0,93,0.30,,,4.91,WUHU216HW,2013-07-13 12:57:00,
2013-07-13 08:02:00,68.0,65.6,29.99,North,0,0.0,0.0,92,0.30,,,4.91,WUHU216HW,2013-07-13 13:02:00,
2013-07-13 08:07:00,67.9,65.4,29.99,North,0,0.0,0.0,92,0.28,,,4.91,WUHU216HW,2013-07-13 13:07:00,
2013-07-13 08:12:00,67.7,65.3,29.99,North,0,0.0,0.0,92,0.23,,,4.91,WUHU216HW,2013-07-13 13:12:00,
2013-07-13 08:17:00,67.5,65.1,29.99,North,0,0.0,0.0,92,0.22,,,4.91,WUHU216HW,2013-07-13 13:17:00,
2013-07-13 08:22:00,67.7,65.3,29.99,North,0,0.0,0.0,92,0.18,,,4.91,WUHU216HW,2013-07-13 13:22:00,
2013-07-13 08:27:00,67.7,65.5,29.99,North,0,0.0,0.0,93,0.13,,,4.91,WUHU216HW,2013-07-13 13:27:00,
2013-07-13 08:32:00,67.7,65.5,29.98,North,0,0.0,0.0,93,0.02,,,4.91,WUHU216HW,2013-07-13 13:32:00,
2013-07-13 08:37:00,67.7,65.5,29.98,North,0,0.0,0.0,93,0.01,,,4.91,WUHU216HW,2013-07-13 13:37:00,
2013-07-13 08:42:00,67.9,65.7,29.98,North,0,0.0,0.0,93,0.00,,,4.91,WUHU216HW,2013-07-13 13:42:00,
2013-07-13 08:47:00,68.0,65.6,29.97,North,0,0.0,0.0,92,0.01,,,4.92,WUHU216HW,2013-07-13 13:47:00,
2013-07-13 08:52:00,68.0,65.6,29.97,North,0,0.0,0.0,92,0.01,,,4.92,WUHU216HW,2013-07-13 13:52:00,
2013-07-13 08:57:00,68.2,65.8,29.96,North,0,0.0,0.0,92,0.01,,,4.92,WUHU216HW,2013-07-13 13:57:00,
2013-07-13 09:02:00,68.4,66.0,29.96,North,0,0.0,0.0,92,0.01,,,4.92,WUHU216HW,2013-07-13 14:02:00,
2013-07-13 09:07:00,68.6,66.4,29.96,North,0,0.0,0.0,93,0.01,,,4.92,WUHU216HW,2013-07-13 14:07:00,
2013-07-13 09:12:00,68.8,66.6,29.96,North,0,0.0,0.0,93,0.01,,,4.92,WUHU216HW,2013-07-13 14:12:00,
2013-07-13 09:17:00,68.8,66.3,29.96,North,0,0.0,0.0,92,0.01,,,4.92,WUHU216HW,2013-07-13 14:17:00,
2013-07-13 09:22:00,68.8,66.3,29.96,North,0,0.0,0.0,92,0.01,,,4.92,WUHU216HW,2013-07-13 14:22:00,
2013-07-13 09:27:00,68.8,66.0,29.96,North,0,0.0,0.0,91,0.01,,,4.92,WUHU216HW,2013-07-13 14:27:00,
2013-07-13 09:32:00,68.8,66.0,29.96,North,0,0.0,0.0,91,0.01,,,4.92,WUHU216HW,2013-07-13 14:32:00,
2013-07-13 09:37:00,68.8,65.7,29.96,North,0,0.0,0.0,90,0.01,,,4.92,WUHU216HW,2013-07-13 14:37:00,
2013-07-13 09:42:00,68.8,65.7,29.96,North,0,0.0,0.0,90,0.00,,,4.92,WUHU216HW,2013-07-13 14:42:00,
2013-07-13 09:47:00,68.8,65.7,29.96,North,0,0.0,0.0,90,0.00,,,4.92,WUHU216HW,2013-07-13 14:47:00,
2013-07-13 09:52:00,68.9,65.9,29.95,North,0,0.0,0.0,90,0.00,,,4.92,WUHU216HW,2013-07-13 14:52:00,
2013-07-13 09:57:00,69.5,66.1,29.95,North,0,0.0,0.0,89,0.00,,,4.92,WUHU216HW,2013-07-13 14:57:00,
2013-07-13 10:02:00,69.8,66.1,29.96,North,0,0.0,0.0,88,0.00,,,4.92,WUHU216HW,2013-07-13 15:02:00,
2013-07-13 10:07:00,69.8,65.8,29.95,North,0,0.0,0.0,87,0.00,,,4.92,WUHU216HW,2013-07-13 15:07:00,
2013-07-13 10:12:00,69.8,65.4,29.95,North,0,0.0,0.0,86,0.00,,,4.92,WUHU216HW,2013-07-13 15:12:00,
2013-07-13 10:17:00,69.7,65.3,29.94,North,0,0.0,0.0,86,0.00,,,4.92,WUHU216HW,2013-07-13 15:17:00,
2013-07-13 10:22:00,69.5,65.4,29.94,North,0,0.0,0.0,87,0.00,,,4.92,WUHU216HW,2013-07-13 15:22:00,
2013-07-13 10:27:00,69.7,65.3,29.94,North,0,0.0,0.0,86,0.00,,,4.92,WUHU216HW,2013-07-13 15:27:00,
2013-07-13 10:32:00,69.5,65.1,29.94,North,0,0.0,0.0,86,0.00,,,4.92,WUHU216HW,2013-07-13 15:32:00,
2013-07-13 10:37:00,69.5,65.1,29.94,North,0,0.0,0.0,86,0.00,,,4.92,WUHU216HW,2013-07-13 15:37:00,
2013-07-13 10:42:00,69.7,65.3,29.94,North,0,0.0,0.0,86,0.00,,,4.92,WUHU216HW,2013-07-13 15:42:00,
2013-07-13 10:47:00,69.8,65.4,29.94,North,0,0.0,0.0,86,0.00,,,4.92,WUHU216HW,2013-07-13 15:47:00,
2013-07-13 10:52:00,70.0,65.6,29.94,North,0,0.0,0.0,86,0.00,,,4.92,WUHU216HW,2013-07-13 15:52:00,
2013-07-13 10:57:00,70.4,66.0,29.94,North,0,0.0,0.0,86,0.00,,,4.92,WUHU216HW,2013-07-13 15:57:00,
2013-07-13 11:02:00,70.9,66.9,29.94,North,0,0.0,0.0,87,0.00,,,4.92,WUHU216HW,2013-07-13 16:02:00,
2013-07-13 11:07:00,71.3,67.2,29.94,North,0,0.0,0.0,87,0.00,,,4.92,WUHU216HW,2013-07-13 16:07:00,
2013-07-13 11:12:00,72.0,68.0,29.95,North,0,0.0,0.0,87,0.00,,,4.92,WUHU216HW,2013-07-13 16:12:00,
2013-07-13 11:17:00,72.5,68.1,29.95,North,0,0.0,0.0,86,0.00,,,4.92,WUHU216HW,2013-07-13 16:17:00,
2013-07-13 11:22:00,73.1,69.0,29.95,North,0,0.0,0.0,87,0.00,,,4.92,WUHU216HW,2013-07-13 16:22:00,
2013-07-13 11:27:00,73.4,68.7,29.95,North,0,0.0,0.0,85,0.00,,,4.92,WUHU216HW,2013-07-13 16:27:00,
2013-07-13 11:32:00,73.8,69.0,29.95,North,0,0.0,0.0,85,0.00,,,4.92,WUHU216HW,2013-07-13 16:32:00,
2013-07-13 11:37:00,73.8,69.0,29.95,North,0,0.0,0.0,85,0.00,,,4.92,WUHU216HW,2013-07-13 16:37:00,
2013-07-13 11:42:00,74.0,69.2,29.96,North,0,0.0,0.0,85,0.00,,,4.92,WUHU216HW,2013-07-13 16:42:00,
2013-07-13 11:47:00,74.5,69.8,29.96,North,0,0.0,0.0,85,0.00,,,4.92,WUHU216HW,2013-07-13 16:47:00,
2013-07-13 11:52:00,74.7,69.9,29.96,North,0,0.0,0.0,85,0.00,,,4.92,WUHU216HW,2013-07-13 16:52:00,
2013-07-13 11:57:00,74.9,70.1,29.96,North,0,0.0,0.0,85,0.00,,,4.92,WUHU216HW,2013-07-13 16:57:00,
2013-07-13 12:02:00,75.1,69.9,29.97,North,0,0.0,0.0,84,0.00,,,4.92,WUHU216HW,2013-07-13 17:02:00,
2013-07-13 12:07:00,75.1,69.6,29.97,North,0,0.0,0.0,83,0.00,,,4.92,WUHU216HW,2013-07-13 17:07:00,
2013-07-13 12:12:00,75.2,69.8,29.97,North,0,0.0,0.0,83,0.00,,,4.92,WUHU216HW,2013-07-13 17:12:00,
2013-07-13 12:17:00,75.2,69.5,29.98,North,0,0.0,0.0,82,0.00,,,4.92,WUHU216HW,2013-07-13 17:17:00,
2013-07-13 12:22:00,75.2,69.1,29.98,North,0,0.0,0.0,81,0.00,,,4.92,WUHU216HW,2013-07-13 17:22:00,
2013-07-13 12:27:00,75.4,69.3,29.99,North,0,0.0,0.0,81,0.00,,,4.92,WUHU216HW,2013-07-13 17:27:00,
2013-07-13 12:32:00,75.6,69.4,29.99,North,0,0.0,0.0,81,0.00,,,4.92,WUHU216HW,2013-07-13 17:32:00,
2013-07-13 12:37:00,76.0,69.8,29.99,North,0,0.0,0.0,81,0.00,,,4.92,WUHU216HW,2013-07-13 17:37:00,
2013-07-13 12:42:00,76.0,69.0,29.99,North,0,0.0,0.0,79,0.00,,,4.92,WUHU216HW,2013-07-13 17:42:00,
2013-07-13 12:47:00,75.6,68.3,29.99,North,0,0.0,0.0,78,0.00,,,4.92,WUHU216HW,2013-07-13 17:47:00,
2013-07-13 12:52:00,75.2,68.4,30.00,North,0,0.0,0.0,79,0.00,,,4.92,WUHU216HW,2013-07-13 17:52:00,
2013-07-13 12:57:00,74.9,68.1,30.00,North,0,0.0,0.0,79,0.00,,,4.92,WUHU216HW,2013-07-13 17:57:00,
2013-07-13 13:02:00,74.5,68.0,30.00,North,0,0.0,0.0,80,0.00,,,4.92,WUHU216HW,2013-07-13 18:02:00,
2013-07-13 13:07:00,74.5,68.0,30.00,North,0,0.0,0.0,80,0.00,,,4.92,WUHU216HW,2013-07-13 18:07:00,
2013-07-13 13:12:00,74.5,68.0,30.01,North,0,0.0,0.0,80,0.00,,,4.92,WUHU216HW,2013-07-13 18:12:00,
2013-07-13 13:17:00,74.3,67.5,30.01,North,0,0.0,0.0,79,0.00,,,4.92,WUHU216HW,2013-07-13 18:17:00,
2013-07-13 13:22:00,74.0,67.2,30.01,North,0,0.0,0.0,79,0.00,,,4.92,WUHU216HW,2013-07-13 18:22:00,
2013-07-13 13:27:00,73.8,67.3,30.01,North,0,0.0,0.0,80,0.00,,,4.92,WUHU216HW,2013-07-13 18:27:00,
2013-07-13 13:32:00,74.0,67.9,30.00,North,0,0.0,0.0,81,0.00,,,4.92,WUHU216HW,2013-07-13 18:32:00,
2013-07-13 13:37:00,74.2,68.1,30.00,North,0,0.0,0.0,81,0.00,,,4.92,WUHU216HW,2013-07-13 18:37:00,
2013-07-13 13:42:00,74.7,68.6,30.00,North,0,0.0,0.0,81,0.00,,,4.92,WUHU216HW,2013-07-13 18:42:00,
2013-07-13 13:47:00,75.2,69.1,29.99,North,0,0.0,0.0,81,0.00,,,4.92,WUHU216HW,2013-07-13 18:47:00,
2013-07-13 13:52:00,75.2,68.8,29.99,North,0,0.0,0.0,80,0.00,,,4.92,WUHU216HW,2013-07-13 18:52:00,
2013-07-13 13:57:00,75.2,68.8,29.99,North,0,0.0,0.0,80,0.00,,,4.92,WUHU216HW,2013-07-13 18:57:00,
2013-07-13 14:02:00,75.4,69.0,29.99,North,0,0.0,0.0,80,0.00,,,4.92,WUHU216HW,2013-07-13 19:02:00,
2013-07-13 14:07:00,75.8,69.6,29.98,North,0,0.0,0.0,81,0.00,,,4.92,WUHU216HW,2013-07-13 19:07:00,
2013-07-13 14:12:00,76.1,69.9,29.98,North,0,0.0,0.0,81,0.00,,,4.92,WUHU216HW,2013-07-13 19:12:00,
2013-07-13 14:17:00,76.5,69.5,29.98,North,0,0.0,0.0,79,0.00,,,4.92,WUHU216HW,2013-07-13 19:17:00,
2013-07-13 14:22:00,76.7,69.7,29.98,North,0,0.0,0.0,79,0.00,,,4.92,WUHU216HW,2013-07-13 19:22:00,
2013-07-13 14:27:00,76.9,69.5,29.98,North,0,0.0,0.0,78,0.00,,,4.92,WUHU216HW,2013-07-13 19:27:00,
2013-07-13 14:32:00,76.9,69.9,29.98,North,0,0.0,0.0,79,0.00,,,4.92,WUHU216HW,2013-07-13 19:32:00,
2013-07-13 14:37:00,77.0,69.7,29.98,North,0,0.0,0.0,78,0.00,,,4.92,WUHU216HW,2013-07-13 19:37:00,
2013-07-13 14:42:00,77.0,70.0,29.98,North,0,0.0,0.0,79,0.00,,,4.92,WUHU216HW,2013-07-13 19:42:00,
2013-07-13 14:47:00,77.2,70.2,29.98,North,0,0.0,0.0,79,0.00,,,4.92,WUHU216HW,2013-07-13 19:47:00,
2013-07-13 14:52:00,77.4,70.4,29.98,North,0,0.0,0.0,79,0.00,,,4.92,WUHU216HW,2013-07-13 19:52:00,
2013-07-13 14:57:00,77.2,70.2,29.99,North,0,0.0,0.0,79,0.00,,,4.92,WUHU216HW,2013-07-13 19:57:00,
2013-07-13 15:02:00,77.0,69.7,29.99,North,0,0.0,0.0,78,0.00,,,4.92,WUHU216HW,2013-07-13 20:02:00,
2013-07-13 15:07:00,76.7,69.3,29.99,North,0,0.0,0.0,78,0.00,,,4.92,WUHU216HW,2013-07-13 20:07:00,
2013-07-13 15:13:00,76.3,68.9,29.99,North,0,0.0,0.0,78,0.00,,,4.92,WUHU216HW,2013-07-13 20:13:00,
2013-07-13 15:18:00,75.8,68.5,29.98,North,0,0.0,0.0,78,0.00,,,4.92,WUHU216HW,2013-07-13 20:18:00,
2013-07-13 15:22:00,75.4,68.1,29.98,North,0,0.0,0.0,78,0.00,,,4.92,WUHU216HW,2013-07-13 20:22:00,
2013-07-13 15:27:00,75.1,67.8,29.99,North,0,0.0,0.0,78,0.00,,,4.92,WUHU216HW,2013-07-13 20:27:00,
2013-07-13 15:33:00,74.9,67.6,30.00,North,0,0.0,0.0,78,0.00,,,4.92,WUHU216HW,2013-07-13 20:33:00,
2013-07-13 15:38:00,74.7,67.4,30.00,North,0,0.0,0.0,78,0.00,,,4.92,WUHU216HW,2013-07-13 20:38:00,
2013-07-13 15:43:00,74.7,67.4,30.00,North,0,0.0,0.0,78,0.00,,,4.92,WUHU216HW,2013-07-13 20:43:00,
2013-07-13 15:48:00,74.5,66.9,30.00,North,0,0.0,0.0,77,0.00,,,4.92,WUHU216HW,2013-07-13 20:48:00,
2013-07-13 15:53:00,74.3,67.1,30.00,North,0,0.0,0.0,78,0.00,,,4.92,WUHU216HW,2013-07-13 20:53:00,
2013-07-13 15:58:00,74.3,67.1,30.00,North,0,0.0,0.0,78,0.00,,,4.92,WUHU216HW,2013-07-13 20:58:00,
2013-07-13 16:03:00,74.2,66.9,30.00,North,0,0.0,0.0,78,0.00,,,4.92,WUHU216HW,2013-07-13 21:03:00,
2013-07-13 16:08:00,74.2,66.9,30.00,North,0,0.0,0.0,78,0.00,,,4.92,WUHU216HW,2013-07-13 21:08:00,
2013-07-13 16:13:00,74.2,66.9,30.00,North,0,0.0,0.0,78,0.00,,,4.92,WUHU216HW,2013-07-13 21:13:00,
2013-07-13 16:18:00,74.3,67.1,29.99,North,0,0.0,0.0,78,0.00,,,4.92,WUHU216HW,2013-07-13 21:18:00,
2013-07-13 16:23:00,74.5,66.9,29.99,North,0,0.0,0.0,77,0.00,,,4.92,WUHU216HW,2013-07-13 21:23:00,
2013-07-13 16:28:00,74.5,67.2,29.99,North,0,0.0,0.0,78,0.00,,,4.92,WUHU216HW,2013-07-13 21:28:00,
2013-07-13 16:33:00,74.5,67.2,29.99,North,0,0.0,0.0,78,0.00,,,4.92,WUHU216HW,2013-07-13 21:33:00,
2013-07-13 16:38:00,74.5,67.2,30.00,North,0,0.0,0.0,78,0.00,,,4.92,WUHU216HW,2013-07-13 21:38:00,
2013-07-13 16:43:00,74.5,66.9,30.00,North,0,0.0,0.0,77,0.00,,,4.92,WUHU216HW,2013-07-13 21:43:00,
2013-07-13 16:47:00,74.5,66.5,29.99,North,0,0.0,0.0,76,0.00,,,4.92,WUHU216HW,2013-07-13 21:47:00,
2013-07-13 16:53:00,74.5,66.9,29.99,North,0,0.0,0.0,77,0.00,,,4.92,WUHU216HW,2013-07-13 21:53:00,
2013-07-13 16:57:00,74.5,66.1,29.99,North,0,0.0,0.0,75,0.00,,,4.92,WUHU216HW,2013-07-13 21:57:00,
2013-07-13 17:02:00,74.5,66.1,29.99,North,0,0.0,0.0,75,0.00,,,4.92,WUHU216HW,2013-07-13 22:02:00,
2013-07-13 17:07:00,74.3,65.9,29.99,North,0,0.0,0.0,75,0.00,,,4.92,WUHU216HW,2013-07-13 22:07:00,
2013-07-13 17:12:00,74.3,65.5,29.99,North,0,0.0,0.0,74,0.00,,,4.92,WUHU216HW,2013-07-13 22:12:00,
2013-07-13 17:17:00,74.3,65.9,29.99,North,0,0.0,0.0,75,0.00,,,4.92,WUHU216HW,2013-07-13 22:17:00,
2013-07-13 17:22:00,74.2,65.8,29.99,North,0,0.0,0.0,75,0.00,,,4.92,WUHU216HW,2013-07-13 22:22:00,
2013-07-13 17:27:00,74.2,65.8,30.00,North,0,0.0,0.0,75,0.00,,,4.92,WUHU216HW,2013-07-13 22:27:00,
2013-07-13 17:32:00,74.3,65.9,30.00,North,0,0.0,0.0,75,0.00,,,4.92,WUHU216HW,2013-07-13 22:32:00,
2013-07-13 17:37:00,74.3,65.5,30.00,North,0,0.0,0.0,74,0.00,,,4.92,WUHU216HW,2013-07-13 22:37:00,
2013-07-13 17:42:00,74.3,65.5,30.00,North,0,0.0,0.0,74,0.00,,,4.92,WUHU216HW,2013-07-13 22:42:00,
2013-07-13 17:47:00,74.2,65.3,30.00,North,0,0.0,0.0,74,0.00,,,4.92,WUHU216HW,2013-07-13 22:47:00,
2013-07-13 17:52:00,74.2,65.3,30.00,North,0,0.0,0.0,74,0.00,,,4.92,WUHU216HW,2013-07-13 22:52:00,
2013-07-13 17:58:00,74.0,64.8,30.00,North,0,0.0,0.0,73,0.00,,,4.92,WUHU216HW,2013-07-13 22:58:00,
2013-07-13 18:03:00,73.8,64.6,30.00,North,0,0.0,0.0,73,0.00,,,4.92,WUHU216HW,2013-07-13 23:03:00,
2013-07-13 18:08:00,73.8,64.6,30.00,North,0,0.0,0.0,73,0.00,,,4.92,WUHU216HW,2013-07-13 23:08:00,
2013-07-13 18:13:00,73.8,65.1,30.00,North,0,0.0,0.0,74,0.00,,,4.92,WUHU216HW,2013-07-13 23:13:00,
2013-07-13 18:18:00,74.0,64.8,30.00,North,0,0.0,0.0,73,0.00,,,4.92,WUHU216HW,2013-07-13 23:18:00,
2013-07-13 18:23:00,74.2,65.0,30.00,North,0,0.0,0.0,73,0.00,,,4.92,WUHU216HW,2013-07-13 23:23:00,
2013-07-13 18:28:00,74.2,64.6,30.00,North,0,0.0,0.0,72,0.00,,,4.92,WUHU216HW,2013-07-13 23:28:00,
2013-07-13 18:33:00,74.2,64.6,30.00,North,0,0.0,0.0,72,0.00,,,4.92,WUHU216HW,2013-07-13 23:33:00,
2013-07-13 18:38:00,74.2,64.6,30.01,North,0,0.0,0.0,72,0.00,,,4.92,WUHU216HW,2013-07-13 23:38:00,
2013-07-13 18:43:00,74.2,64.6,30.01,North,0,0.0,0.0,72,0.00,,,4.92,WUHU216HW,2013-07-13 23:43:00,
2013-07-13 18:48:00,74.2,64.6,30.01,North,0,0.0,0.0,72,0.00,,,4.92,WUHU216HW,2013-07-13 23:48:00,
2013-07-13 18:53:00,74.2,64.6,30.01,North,0,0.0,0.0,72,0.00,,,4.92,WUHU216HW,2013-07-13 23:53:00,
2013-07-13 18:58:00,74.2,64.6,30.01,North,0,0.0,0.0,72,0.00,,,4.92,WUHU216HW,2013-07-13 23:58:00,
2013-07-13 19:03:00,74.2,64.6,30.01,North,0,0.0,0.0,72,0.00,,,4.92,WUHU216HW,2013-07-14 00:03:00,
2013-07-13 19:08:00,74.0,64.5,30.01,North,0,0.0,0.0,72,0.00,,,4.92,WUHU216HW,2013-07-14 00:08:00,
2013-07-13 19:13:00,73.8,63.9,30.01,North,0,0.0,0.0,71,0.00,,,4.92,WUHU216HW,2013-07-14 00:13:00,
2013-07-13 19:18:00,73.8,64.3,30.01,North,0,0.0,0.0,72,0.00,,,4.92,WUHU216HW,2013-07-14 00:18:00,
2013-07-13 19:23:00,73.8,63.9,30.00,North,0,0.0,0.0,71,0.00,,,4.92,WUHU216HW,2013-07-14 00:23:00,
2013-07-13 19:28:00,73.8,63.9,30.00,North,0,0.0,0.0,71,0.00,,,4.92,WUHU216HW,2013-07-14 00:28:00,
2013-07-13 19:33:00,73.6,64.1,30.00,North,0,0.0,0.0,72,0.00,,,4.92,WUHU216HW,2013-07-14 00:33:00,
2013-07-13 19:38:00,73.6,64.1,30.00,North,0,0.0,0.0,72,0.00,,,4.92,WUHU216HW,2013-07-14 00:38:00,
2013-07-13 19:43:00,73.6,64.1,30.00,North,0,0.0,0.0,72,0.00,,,4.92,WUHU216HW,2013-07-14 00:43:00,
2013-07-13 19:48:00,73.4,63.9,30.00,North,0,0.0,0.0,72,0.00,,,4.92,WUHU216HW,2013-07-14 00:48:00,
2013-07-13 19:53:00,73.4,63.9,30.00,North,0,0.0,0.0,72,0.00,,,4.92,WUHU216HW,2013-07-14 00:53:00,
2013-07-13 19:58:00,73.3,64.2,30.00,North,0,0.0,0.0,73,0.00,,,4.92,WUHU216HW,2013-07-14 00:58:00,
2013-07-13 20:03:00,73.3,63.7,30.00,North,0,0.0,0.0,72,0.00,,,4.92,WUHU216HW,2013-07-14 01:03:00,
2013-07-13 20:08:00,73.4,63.9,30.00,North,0,0.0,0.0,72,0.00,,,4.92,WUHU216HW,2013-07-14 01:08:00,
2013-07-13 20:13:00,73.3,63.7,30.00,North,0,0.0,0.0,72,0.00,,,4.92,WUHU216HW,2013-07-14 01:13:00,
2013-07-13 20:18:00,73.1,62.8,30.00,North,0,0.0,0.0,70,0.00,,,4.92,WUHU216HW,2013-07-14 01:18:00,
2013-07-13 20:23:00,73.1,62.8,30.00,North,0,0.0,0.0,70,0.00,,,4.92,WUHU216HW,2013-07-14 01:23:00,
2013-07-13 20:28:00,72.9,62.2,30.00,North,0,0.0,0.0,69,0.00,,,4.92,WUHU216HW,2013-07-14 01:28:00,
2013-07-13 20:33:00,72.7,61.6,30.00,North,0,0.0,0.0,68,0.00,,,4.92,WUHU216HW,2013-07-14 01:33:00,
2013-07-13 20:38:00,72.7,61.6,30.00,North,0,0.0,0.0,68,0.00,,,4.92,WUHU216HW,2013-07-14 01:38:00,
2013-07-13 20:43:00,72.5,61.8,30.00,North,0,0.0,0.0,69,0.00,,,4.92,WUHU216HW,2013-07-14 01:43:00,
2013-07-13 20:48:00,72.4,62.1,30.00,North,0,0.0,0.0,70,0.00,,,4.92,WUHU216HW,2013-07-14 01:48:00,
2013-07-13 20:53:00,72.4,62.1,30.00,North,0,0.0,0.0,70,0.00,,,4.92,WUHU216HW,2013-07-14 01:53:00,
2013-07-13 20:58:00,72.2,61.9,30.00,North,0,0.0,0.0,70,0.00,,,4.92,WUHU216HW,2013-07-14 01:58:00,
2013-07-13 21:03:00,72.0,61.7,30.00,North,0,0.0,0.0,70,0.00,,,4.92,WUHU216HW,2013-07-14 02:03:00,
2013-07-13 21:08:00,71.6,61.4,29.99,North,0,0.0,0.0,70,0.00,,,4.92,WUHU216HW,2013-07-14 02:08:00,
2013-07-13 21:13:00,71.6,60.9,29.99,North,0,0.0,0.0,69,0.00,,,4.92,WUHU216HW,2013-07-14 02:13:00,
2013-07-13 21:18:00,71.5,60.8,30.00,North,0,0.0,0.0,69,0.00,,,4.92,WUHU216HW,2013-07-14 02:18:00,
2013-07-13 21:23:00,71.3,60.6,30.00,North,0,0.0,0.0,69,0.00,,,4.92,WUHU216HW,2013-07-14 02:23:00,
2013-07-13 21:28:00,71.3,60.6,30.00,North,0,0.0,0.0,69,0.00,,,4.92,WUHU216HW,2013-07-14 02:28:00,
2013-07-13 21:33:00,70.9,59.9,30.01,North,0,0.0,0.0,68,0.00,,,4.92,WUHU216HW,2013-07-14 02:33:00,
2013-07-13 21:38:00,70.7,59.7,30.01,North,0,0.0,0.0,68,0.00,,,4.92,WUHU216HW,2013-07-14 02:38:00,
2013-07-13 21:43:00,70.4,59.3,30.01,North,0,0.0,0.0,68,0.00,,,4.92,WUHU216HW,2013-07-14 02:43:00,
2013-07-13 21:48:00,70.2,59.5,30.01,North,0,0.0,0.0,69,0.00,,,4.92,WUHU216HW,2013-07-14 02:48:00,
2013-07-13 21:53:00,70.0,59.3,30.01,North,0,0.0,0.0,69,0.00,,,4.92,WUHU216HW,2013-07-14 02:53:00,
2013-07-13 21:58:00,69.8,59.1,30.01,North,0,0.0,0.0,69,0.00,,,4.92,WUHU216HW,2013-07-14 02:58:00,
2013-07-13 22:03:00,69.8,59.1,30.01,North,0,0.0,0.0,69,0.00,,,4.92,WUHU216HW,2013-07-14 03:03:00,
2013-07-13 22:08:00,69.7,59.4,30.02,North,0,0.0,0.0,70,0.00,,,4.92,WUHU216HW,2013-07-14 03:08:00,
2013-07-13 22:13:00,69.7,59.4,30.02,North,0,0.0,0.0,70,0.00,,,4.92,WUHU216HW,2013-07-14 03:13:00,
2013-07-13 22:18:00,69.5,59.2,30.02,North,0,0.0,0.0,70,0.00,,,4.92,WUHU216HW,2013-07-14 03:18:00,
2013-07-13 22:23:00,69.5,59.2,30.02,North,0,0.0,0.0,70,0.00,,,4.92,WUHU216HW,2013-07-14 03:23:00,
2013-07-13 22:28:00,69.3,59.1,30.02,North,0,0.0,0.0,70,0.00,,,4.92,WUHU216HW,2013-07-14 03:28:00,
2013-07-13 22:33:00,69.3,59.5,30.02,North,0,0.0,0.0,71,0.00,,,4.92,WUHU216HW,2013-07-14 03:33:00,
2013-07-13 22:38:00,69.5,59.7,30.03,North,0,0.0,0.0,71,0.00,,,4.92,WUHU216HW,2013-07-14 03:38:00,
2013-07-13 22:43:00,69.5,59.7,30.03,North,0,0.0,0.0,71,0.00,,,4.92,WUHU216HW,2013-07-14 03:43:00,
2013-07-13 22:48:00,69.5,59.7,30.03,North,0,0.0,0.0,71,0.00,,,4.92,WUHU216HW,2013-07-14 03:48:00,
2013-07-13 22:53:00,69.5,59.7,30.03,North,0,0.0,0.0,71,0.00,,,4.92,WUHU216HW,2013-07-14 03:53:00,
2013-07-13 22:58:00,69.3,59.5,30.03,North,0,0.0,0.0,71,0.00,,,4.92,WUHU216HW,2013-07-14 03:58:00,
2013-07-13 23:01:00,69.3,59.5,30.03,North,0,0.0,0.0,71,0.00,,,4.92,WUHU216HW,2013-07-14 04:01:00,
2013-07-13 23:06:00,69.3,59.5,30.03,North,0,0.0,0.0,71,0.00,,,4.92,WUHU216HW,2013-07-14 04:06:00,
2013-07-13 23:11:00,69.3,59.9,30.04,North,0,0.0,0.0,72,0.00,,,4.92,WUHU216HW,2013-07-14 04:11:00,
2013-07-13 23:16:00,69.3,59.9,30.04,North,0,0.0,0.0,72,0.00,,,4.92,WUHU216HW,2013-07-14 04:16:00,
2013-07-13 23:21:00,69.1,59.7,30.04,North,0,0.0,0.0,72,0.00,,,4.92,WUHU216HW,2013-07-14 04:21:00,
2013-07-13 23:26:00,69.1,59.7,30.04,North,0,0.0,0.0,72,0.00,,,4.92,WUHU216HW,2013-07-14 04:26:00,
2013-07-13 23:31:00,69.1,59.7,30.04,North,0,0.0,0.0,72,0.00,,,4.92,WUHU216HW,2013-07-14 04:31:00,
2013-07-13 23:36:00,69.3,60.2,30.04,North,0,0.0,0.0,73,0.00,,,4.92,WUHU216HW,2013-07-14 04:36:00,
2013-07-13 23:41:00,69.3,60.2,30.04,North,0,0.0,0.0,73,0.00,,,4.92,WUHU216HW,2013-07-14 04:41:00,
2013-07-13 23:46:00,69.5,60.4,30.05,North,0,0.0,0.0,73,0.00,,,4.92,WUHU216HW,2013-07-14 04:46:00,
2013-07-13 23:51:00,69.5,60.4,30.05,North,0,0.0,0.0,73,0.00,,,4.92,WUHU216HW,2013-07-14 04:51:00,
2013-07-13 23:56:00,69.7,60.6,30.06,North,0,0.0,0.0,73,0.00,,,4.92,WUHU216HW,2013-07-14 04:56:00,